WCOM7: Spring River, Waco, MO

                                SHEF ID:       WCOM7     Spring R A - Waco MO
STATION TYPE: Stream Gauge
Regulating: Stage = 19.00, Flow = 17743

PRECIP STAGE RIV-FLOW BAT-LOAD
in ft cfs volt
Ccp-Rev Ccp-Rev Ccp-Rev Ccp-Rev
(America/Chicago)
04/26 00:00 0.00 3.88 1503 12.14
04/26 01:00 0.00 3.86 1488 12.10
04/26 02:00 0.00 3.86 1488 12.13
04/26 03:00 0.00 3.81 1453 12.09
04/26 04:00 0.00 3.82 1460 12.06
04/26 05:00 0.00 3.80 1446 12.04
04/26 06:00 0.00 3.78 1432 12.04
04/26 07:00 0.00 3.81 1453 12.04
04/26 08:00 0.00 3.77 1425 12.10
04/26 09:00 0.00 3.72 1390 12.41
04/26 10:00 0.00 3.73 1397 12.80
04/26 11:00 0.00 3.73 1397 12.96
04/26 12:00 0.00 3.68 1363 12.88
04/26 13:00 0.00 3.58 1293 12.66
04/26 14:00 0.00 3.67 1356 12.77
04/26 15:00 0.00 3.60 1308 12.67
04/26 16:00 0.00 3.62 1322 12.48
04/26 17:00 0.00 3.55 1272 12.42
04/26 18:00 0.00 3.58 1293 12.43
04/26 19:00 0.00 3.61 1315 12.40
04/26 20:00 0.00 3.57 1286 12.25
04/26 21:00 0.00 3.57 1286 12.19
04/26 22:00 0.00 3.60 1308 12.15
04/26 23:00 0.00 4.03 1610 12.17
Data processed at Mon 27Apr2026 04:37 GMT

NOTICE: If you are parsing this page

Please convert to using our Data API. Starting early 2026 we will be migrating to: https://water.usace.army.mil with modern pages rendered in JavaScript. When this migration completes you will no longer be able to scrape this page! CWMSDataAPI (CDA)

Timeseries IDs (TSIDs)

TSIDs used from left to right in the data table
WACO.Precip-Inc.Total.1Hour.1Hour.Ccp-Rev
WACO.Stage.Inst.1Hour.0.Ccp-Rev
WACO.Flow.Inst.1Hour.0.Ccp-Rev
WACO.Volt-Battery Load.Inst.1Hour.0.Ccp-Rev

                            

All information presented herein is the property of the government of the United States of America and may be revised or deleted at any time without prior notice. Dissemination of this information without the expressed written consent of the Public Affairs Office, Tulsa District U.S. Army Corps of Engineers is strictly prohibited. These data are gathered electronically and, as presented, have NOT undergone any form of quality control. These data are NOT guaranteed to be valid or correct.